Time;durP1;ratioP1;P1;durP2;ratioP2;P2;SDS_P1;SDS_P2;PMS_P1;PMS_P2;Temp;Humidity;BMP_temperature;BMP_pressure;BME280_temperature;BME280_humidity;BME280_pressure;Samples;Min_cycle;Max_cycle;Signal;HPM_P1;HPM_P2
2023/03/07 00:00:13;;;;;;;3.83;2.45;;;;;;;-144.57;100.00;62443.72;5075044;28;20089;-63
2023/03/07 00:02:39;;;;;;;3.60;2.50;;;;;;;-144.57;100.00;62443.72;5093377;28;20043;-61
2023/03/07 00:05:06;;;;;;;2.35;2.15;;;;;;;-144.57;100.00;62443.72;5092931;28;20501;-62
2023/03/07 00:07:32;;;;;;;3.03;2.10;;;;;;;-144.57;100.00;62443.72;5091669;28;20036;-62
2023/03/07 00:09:58;;;;;;;4.57;2.60;;;;;;;-144.57;100.00;62443.72;5092850;28;20051;-62
2023/03/07 00:12:24;;;;;;;4.35;2.20;;;;;;;-144.57;100.00;62443.72;5093316;28;20413;-62
2023/03/07 00:14:49;;;;;;;3.53;2.63;;;;;;;-144.57;100.00;62443.72;5074334;28;20096;-62
2023/03/07 00:17:15;;;;;;;3.83;2.03;;;;;;;-144.57;100.00;62443.72;5093142;28;20401;-62
2023/03/07 00:19:44;;;;;;;2.35;1.85;;;;;;;-144.57;100.00;62443.72;5092598;28;20047;-60
2023/03/07 00:22:10;;;;;;;2.88;2.22;;;;;;;-144.57;100.00;62443.72;5092410;28;20139;-62
2023/03/07 00:24:36;;;;;;;3.03;2.10;;;;;;;-144.57;100.00;62443.72;5092422;28;20511;-61
2023/03/07 00:27:02;;;;;;;3.05;2.10;;;;;;;-144.57;100.00;62443.72;5092980;28;20070;-61
2023/03/07 00:29:28;;;;;;;3.53;2.00;;;;;;;-144.57;100.00;62443.72;5091231;28;20408;-62
2023/03/07 00:31:53;;;;;;;3.65;2.25;;;;;;;-144.57;100.00;62443.72;5092582;28;20382;-63
2023/03/07 00:34:19;;;;;;;3.17;2.35;;;;;;;-144.57;100.00;62443.72;5092306;28;20036;-62
2023/03/07 00:36:44;;;;;;;4.38;2.45;;;;;;;-144.57;100.00;62443.72;5091274;28;20056;-63
2023/03/07 00:39:11;;;;;;;4.15;1.90;;;;;;;-144.57;100.00;62443.72;5090927;28;20035;-62
2023/03/07 00:41:36;;;;;;;3.88;2.22;;;;;;;-144.57;100.00;62443.72;5092588;28;20097;-63
2023/03/07 00:44:02;;;;;;;4.10;2.10;;;;;;;-144.57;100.00;62443.72;5074111;28;20075;-64
2023/03/07 00:46:28;;;;;;;3.47;2.10;;;;;;;-144.57;100.00;62443.72;5073939;28;20227;-62
2023/03/07 00:48:54;;;;;;;6.90;2.40;;;;;;;-144.57;100.00;62443.72;5092372;28;20055;-62
2023/03/07 00:51:22;;;;;;;2.88;2.10;;;;;;;-144.57;100.00;62443.72;5057512;28;20184;-60
2023/03/07 00:53:49;;;;;;;2.78;2.13;;;;;;;-144.57;100.00;62443.72;5090708;28;20048;-63
2023/03/07 00:56:17;;;;;;;2.45;2.08;;;;;;;-144.57;100.00;62443.72;5073829;28;20040;-62
2023/03/07 00:58:44;;;;;;;4.13;2.50;;;;;;;-144.57;100.00;62443.72;5073679;28;20040;-61
2023/03/07 01:01:12;;;;;;;4.40;2.00;;;;;;;-144.57;100.00;62443.72;5092082;28;20051;-62
2023/03/07 01:03:38;;;;;;;3.13;2.13;;;;;;;-144.57;100.00;62443.72;5090280;28;20051;-63
2023/03/07 01:06:07;;;;;;;4.40;2.25;;;;;;;-144.57;100.00;62443.72;5090620;28;20478;-61
2023/03/07 01:08:34;;;;;;;4.13;2.20;;;;;;;-144.57;100.00;62443.72;5090496;28;20043;-63
2023/03/07 01:11:04;;;;;;;4.15;2.25;;;;;;;-144.57;100.00;62443.72;5090537;28;20497;-62
2023/03/07 01:13:31;;;;;;;3.38;2.35;;;;;;;-144.57;100.00;62443.72;5073505;28;20143;-61
2023/03/07 01:16:18;;;;;;;4.60;2.42;;;;;;;-144.57;100.00;62443.72;5090342;28;20484;-61
2023/03/07 01:18:47;;;;;;;3.58;2.22;;;;;;;-144.57;100.00;62443.72;5091367;28;20044;-61
2023/03/07 01:21:15;;;;;;;3.75;1.92;;;;;;;-144.57;100.00;62443.72;5090168;28;20051;-62
2023/03/07 01:23:41;;;;;;;4.35;2.50;;;;;;;-144.57;100.00;62443.72;5073304;28;20048;-61
2023/03/07 01:26:17;;;;;;;4.55;2.28;;;;;;;-144.57;100.00;62443.72;5089915;28;20048;-61
2023/03/07 01:28:43;;;;;;;2.67;2.00;;;;;;;-144.57;100.00;62443.72;5090127;28;20109;-62
2023/03/07 01:31:09;;;;;;;7.50;2.45;;;;;;;-144.57;100.00;62443.72;5090348;28;20055;-62
2023/03/07 01:33:35;;;;;;;3.63;2.05;;;;;;;-144.57;100.00;62443.72;5073621;28;20497;-62
2023/03/07 01:36:01;;;;;;;3.47;2.20;;;;;;;-144.57;100.00;62443.72;5091854;28;20055;-60
2023/03/07 01:38:32;;;;;;;4.43;2.30;;;;;;;-144.57;100.00;62443.72;5090317;28;20043;-62
2023/03/07 01:41:00;;;;;;;3.63;1.92;;;;;;;-144.57;100.00;62443.72;5090742;28;20416;-61
2023/03/07 01:43:31;;;;;;;2.38;2.05;;;;;;;-144.57;100.00;62443.72;5090240;28;20036;-61
2023/03/07 01:46:20;;;;;;;7.05;1.90;;;;;;;-144.57;100.00;62443.72;5075742;28;20463;-63
2023/03/07 01:48:54;;;;;;;4.80;2.13;;;;;;;-144.57;100.00;62443.72;5073316;28;20039;-62
2023/03/07 01:51:20;;;;;;;2.85;1.75;;;;;;;-144.57;100.00;62443.72;5090336;28;20052;-62
2023/03/07 01:53:48;;;;;;;2.20;1.80;;;;;;;-144.57;100.00;62443.72;5090102;28;20040;-61
2023/03/07 01:56:14;;;;;;;3.83;2.53;;;;;;;-144.57;100.00;62443.72;5090242;28;20056;-62
2023/03/07 01:58:40;;;;;;;2.58;2.13;;;;;;;-144.57;100.00;62443.72;5073314;28;20138;-63
2023/03/07 02:01:08;;;;;;;2.63;2.08;;;;;;;-144.57;100.00;62443.72;5073397;28;20109;-61
2023/03/07 02:03:51;;;;;;;2.53;1.65;;;;;;;-144.57;100.00;62443.72;5089827;28;20127;-62
2023/03/07 02:06:17;;;;;;;3.25;2.25;;;;;;;-144.57;100.00;62443.72;5091724;28;20056;-61
2023/03/07 02:08:44;;;;;;;3.13;2.30;;;;;;;-144.57;100.00;62443.72;5056438;28;20048;-61
2023/03/07 02:11:11;;;;;;;3.20;2.13;;;;;;;-144.57;100.00;62443.72;5091624;28;20036;-62
2023/03/07 02:13:37;;;;;;;5.65;1.95;;;;;;;-144.57;100.00;62443.72;5073298;28;20129;-61
2023/03/07 02:16:03;;;;;;;5.07;2.20;;;;;;;-144.57;100.00;62443.72;5091347;28;20040;-62
2023/03/07 02:18:31;;;;;;;4.38;2.17;;;;;;;-144.57;100.00;62443.72;5089988;28;20040;-61
2023/03/07 02:20:57;;;;;;;5.47;2.15;;;;;;;-144.57;100.00;62443.72;5056474;28;20102;-62
2023/03/07 02:23:33;;;;;;;4.15;2.15;;;;;;;-144.57;100.00;62443.72;5089912;28;20048;-61
2023/03/07 02:26:25;;;;;;;2.20;2.00;;;;;;;-144.57;100.00;62443.72;5039855;28;20047;-63
2023/03/07 02:28:52;;;;;;;5.00;2.75;;;;;;;-144.57;100.00;62443.72;5085051;28;20742;-61
2023/03/07 02:31:17;;;;;;;3.72;2.10;;;;;;;-144.57;100.00;62443.72;5089683;28;20044;-62
2023/03/07 02:33:43;;;;;;;2.58;2.38;;;;;;;-144.57;100.00;62443.72;5091029;28;20046;-63
2023/03/07 02:36:13;;;;;;;2.80;2.10;;;;;;;-144.57;100.00;62443.72;5091224;28;20044;-62
2023/03/07 02:39:01;;;;;;;3.88;2.30;;;;;;;-144.57;100.00;62443.72;5088512;28;20059;-62
2023/03/07 02:41:32;;;;;;;4.30;2.15;;;;;;;-144.57;100.00;62443.72;5093968;28;20386;-61
2023/03/07 02:44:00;;;;;;;3.20;2.22;;;;;;;-144.57;100.00;62443.72;5077193;28;20048;-61
2023/03/07 02:46:27;;;;;;;4.50;2.35;;;;;;;-144.57;100.00;62443.72;5093480;28;20094;-63
2023/03/07 02:48:52;;;;;;;3.85;2.78;;;;;;;-144.57;100.00;62443.72;5094759;28;20051;-61
2023/03/07 02:51:18;;;;;;;3.83;2.28;;;;;;;-144.57;100.00;62443.72;5092448;28;20048;-61
2023/03/07 02:53:45;;;;;;;4.20;2.08;;;;;;;-144.57;100.00;62443.72;5076500;28;20130;-63
2023/03/07 02:56:11;;;;;;;2.58;2.30;;;;;;;-144.57;100.00;62443.72;5093508;28;20548;-63
2023/03/07 02:58:37;;;;;;;3.90;2.33;;;;;;;-144.57;100.00;62443.72;5093396;28;20485;-62
2023/03/07 03:01:03;;;;;;;3.25;2.13;;;;;;;-144.57;100.00;62443.72;5076080;28;20044;-62
2023/03/07 03:03:30;;;;;;;3.33;2.30;;;;;;;-144.57;100.00;62443.72;5094127;28;20455;-61
2023/03/07 03:05:56;;;;;;;6.28;2.42;;;;;;;-144.57;100.00;62443.72;5094489;28;20047;-62
2023/03/07 03:08:22;;;;;;;4.65;2.25;;;;;;;-144.57;100.00;62443.72;5076582;28;20040;-61
2023/03/07 03:10:54;;;;;;;4.00;2.58;;;;;;;-144.57;100.00;62443.72;5076190;28;20089;-61
2023/03/07 03:13:22;;;;;;;3.15;2.60;;;;;;;-144.57;100.00;62443.72;5093127;28;20051;-62
2023/03/07 03:15:47;;;;;;;4.57;2.63;;;;;;;-144.57;100.00;62443.72;5094232;28;20044;-62
2023/03/07 03:18:13;;;;;;;3.45;2.15;;;;;;;-144.57;100.00;62443.72;5076129;28;20052;-61
2023/03/07 03:20:42;;;;;;;5.72;2.60;;;;;;;-144.57;100.00;62443.72;5075871;28;20130;-62
2023/03/07 03:23:08;;;;;;;5.07;2.72;;;;;;;-144.57;100.00;62443.72;5076001;28;20235;-61
2023/03/07 03:25:35;;;;;;;3.45;2.35;;;;;;;-144.57;100.00;62443.72;5093967;28;20048;-61
2023/03/07 03:28:01;;;;;;;4.75;2.47;;;;;;;-144.57;100.00;62443.72;5092836;28;20040;-62
2023/03/07 03:30:31;;;;;;;3.80;2.70;;;;;;;-144.57;100.00;62443.72;5092980;28;20044;-61
2023/03/07 03:32:58;;;;;;;5.40;2.60;;;;;;;-144.57;100.00;62443.72;5092812;28;20472;-62
2023/03/07 03:35:26;;;;;;;5.00;2.58;;;;;;;-144.57;100.00;62443.72;5092706;28;20054;-64
2023/03/07 03:37:55;;;;;;;3.28;2.47;;;;;;;-144.57;100.00;62443.72;5092789;28;20123;-62
2023/03/07 03:40:20;;;;;;;4.22;2.45;;;;;;;-144.57;100.00;62443.72;5092546;28;20047;-61
2023/03/07 03:42:46;;;;;;;5.15;2.42;;;;;;;-144.57;100.00;62443.72;5092702;28;20505;-62
2023/03/07 03:45:14;;;;;;;6.57;2.80;;;;;;;-144.57;100.00;62443.72;5092391;28;20052;-60
2023/03/07 03:47:39;;;;;;;6.38;2.90;;;;;;;-144.57;100.00;62443.72;5093544;28;20500;-62
2023/03/07 03:50:06;;;;;;;5.60;2.80;;;;;;;-144.57;100.00;62443.72;5091773;28;20113;-63
2023/03/07 03:52:34;;;;;;;4.18;2.60;;;;;;;-144.57;100.00;62443.72;5075709;28;20078;-62
2023/03/07 03:55:00;;;;;;;5.05;2.60;;;;;;;-144.57;100.00;62443.72;5092209;28;20040;-63
2023/03/07 03:57:25;;;;;;;5.18;2.83;;;;;;;-144.57;100.00;62443.72;5093900;28;20105;-63
2023/03/07 03:59:51;;;;;;;4.75;2.85;;;;;;;-144.57;100.00;62443.72;5093621;28;20050;-62
2023/03/07 04:02:17;;;;;;;6.03;2.72;;;;;;;-144.57;100.00;62443.72;5093829;28;20043;-61
2023/03/07 04:04:43;;;;;;;5.40;2.75;;;;;;;-144.57;100.00;62443.72;5091599;28;20056;-62
2023/03/07 04:07:09;;;;;;;3.88;2.78;;;;;;;-144.57;100.00;62443.72;5093729;28;20040;-62
2023/03/07 04:09:34;;;;;;;4.88;2.40;;;;;;;-144.57;100.00;62443.72;5090756;28;20493;-63
2023/03/07 04:12:00;;;;;;;5.25;2.97;;;;;;;-144.57;100.00;62443.72;5091962;28;20108;-62
2023/03/07 04:14:27;;;;;;;3.22;2.75;;;;;;;-144.57;100.00;62443.72;5091733;28;20562;-63
2023/03/07 04:16:52;;;;;;;4.78;2.90;;;;;;;-144.57;100.00;62443.72;5093227;28;20052;-64
2023/03/07 04:19:18;;;;;;;5.05;2.90;;;;;;;-144.57;100.00;62443.72;5074788;28;20092;-63
2023/03/07 04:21:44;;;;;;;5.93;2.47;;;;;;;-144.57;100.00;62443.72;5091633;28;20135;-62
2023/03/07 04:24:11;;;;;;;4.97;3.20;;;;;;;-144.57;100.00;62443.72;5091118;28;20043;-62
2023/03/07 04:26:37;;;;;;;4.75;2.70;;;;;;;-144.57;100.00;62443.72;5091393;28;20055;-62
2023/03/07 04:29:03;;;;;;;5.70;3.20;;;;;;;-144.57;100.00;62443.72;5091526;28;20051;-63
2023/03/07 04:31:43;;;;;;;6.63;2.80;;;;;;;-144.57;100.00;62443.72;5091669;28;20052;-62
2023/03/07 04:34:10;;;;;;;3.90;2.80;;;;;;;-144.57;100.00;62443.72;5091429;28;20040;-62
2023/03/07 04:36:36;;;;;;;3.35;2.42;;;;;;;-144.57;100.00;62443.72;5092869;28;20182;-60
2023/03/07 04:39:02;;;;;;;6.00;2.85;;;;;;;-144.57;100.00;62443.72;5092870;28;20479;-63
2023/03/07 04:41:29;;;;;;;4.15;2.92;;;;;;;-144.57;100.00;62443.72;5074453;28;20052;-63
2023/03/07 04:44:02;;;;;;;4.68;2.63;;;;;;;-144.57;100.00;62443.72;5075425;28;20134;-64
2023/03/07 04:46:28;;;;;;;4.47;3.00;;;;;;;-144.57;100.00;62443.72;5091356;28;20178;-63
2023/03/07 04:48:54;;;;;;;4.70;2.65;;;;;;;-144.57;100.00;62443.72;5091080;28;20425;-62
2023/03/07 04:51:20;;;;;;;4.03;2.47;;;;;;;-144.57;100.00;62443.72;5074413;28;20051;-62
2023/03/07 04:53:48;;;;;;;4.05;2.65;;;;;;;-144.57;100.00;62443.72;5090694;28;20140;-62
2023/03/07 04:56:16;;;;;;;4.28;2.80;;;;;;;-144.57;100.00;62443.72;5092391;28;20060;-63
2023/03/07 04:58:45;;;;;;;5.63;2.88;;;;;;;-144.57;100.00;62443.72;5058406;28;20048;-63
2023/03/07 05:01:12;;;;;;;6.00;3.25;;;;;;;-144.57;100.00;62443.72;5091299;28;20118;-63
2023/03/07 05:03:38;;;;;;;5.53;3.20;;;;;;;-144.57;100.00;62443.72;5056815;28;20082;-65
2023/03/07 05:06:07;;;;;;;4.68;3.15;;;;;;;-144.57;100.00;62443.72;5091225;28;20068;-63
2023/03/07 05:08:34;;;;;;;5.95;3.17;;;;;;;-144.57;100.00;62443.72;5057621;28;20044;-62
2023/03/07 05:11:00;;;;;;;4.55;2.80;;;;;;;-144.57;100.00;62443.72;5090496;28;20036;-63
2023/03/07 05:13:26;;;;;;;5.05;2.85;;;;;;;-144.57;100.00;62443.72;5090467;28;20101;-60
2023/03/07 05:15:53;;;;;;;4.18;3.00;;;;;;;-144.57;100.00;62443.72;5090554;28;20048;-61
2023/03/07 05:18:21;;;;;;;5.68;3.28;;;;;;;-144.57;100.00;62443.72;5073228;28;20040;-62
2023/03/07 05:20:51;;;;;;;5.20;2.70;;;;;;;-144.57;100.00;62443.72;5070686;28;20362;-60
2023/03/07 05:23:18;;;;;;;4.57;2.80;;;;;;;-144.57;100.00;62443.72;5093171;28;20032;-62
2023/03/07 05:25:46;;;;;;;6.13;3.42;;;;;;;-144.57;100.00;62443.72;5110674;28;20039;-62
2023/03/07 05:28:13;;;;;;;4.95;3.17;;;;;;;-144.57;100.00;62443.72;5109355;28;20068;-61
2023/03/07 05:30:40;;;;;;;6.20;3.28;;;;;;;-144.57;100.00;62443.72;5088488;28;20032;-61
2023/03/07 05:33:06;;;;;;;5.40;3.47;;;;;;;-144.57;100.00;62443.72;5073434;28;20438;-62
2023/03/07 05:35:32;;;;;;;5.35;3.10;;;;;;;-144.57;100.00;62443.72;5055942;28;20173;-61
2023/03/07 05:37:59;;;;;;;4.72;2.72;;;;;;;-144.57;100.00;62443.72;5071598;28;20544;-61
2023/03/07 05:40:26;;;;;;;7.78;3.63;;;;;;;-144.57;100.00;62443.72;5073464;28;20057;-62
2023/03/07 05:42:51;;;;;;;5.97;3.17;;;;;;;-144.57;100.00;62443.72;5089724;28;20143;-62
2023/03/07 05:45:19;;;;;;;7.00;2.90;;;;;;;-144.57;100.00;62443.72;5072975;28;20059;-63
2023/03/07 05:47:45;;;;;;;6.15;3.25;;;;;;;-144.57;100.00;62443.72;5073367;28;20363;-62
2023/03/07 05:50:12;;;;;;;5.32;3.35;;;;;;;-144.57;100.00;62443.72;5072615;28;20425;-61
2023/03/07 05:52:39;;;;;;;4.90;3.05;;;;;;;-144.57;100.00;62443.72;5089185;28;20130;-61
2023/03/07 05:55:06;;;;;;;5.97;3.10;;;;;;;-144.57;100.00;62443.72;5072210;28;20050;-62
2023/03/07 05:57:32;;;;;;;8.30;3.47;;;;;;;-144.57;100.00;62443.72;5087886;28;20047;-64
2023/03/07 05:59:58;;;;;;;6.95;3.78;;;;;;;-144.57;100.00;62443.72;5087946;28;20048;-63
2023/03/07 06:02:24;;;;;;;5.13;2.97;;;;;;;-144.57;100.00;62443.72;5088008;28;20098;-62
2023/03/07 06:04:50;;;;;;;5.25;3.10;;;;;;;-144.57;100.00;62443.72;5070794;28;20059;-63
2023/03/07 06:07:15;;;;;;;4.85;3.00;;;;;;;-144.57;100.00;62443.72;5088934;28;20097;-62
2023/03/07 06:09:41;;;;;;;8.40;3.90;;;;;;;-144.57;100.00;62443.72;5090402;28;20051;-61
2023/03/07 06:12:09;;;;;;;5.03;3.20;;;;;;;-144.57;100.00;62443.72;5073067;28;20057;-63
2023/03/07 06:14:35;;;;;;;4.75;3.22;;;;;;;-144.57;100.00;62443.72;5093408;28;20103;-62
2023/03/07 06:17:01;;;;;;;5.35;3.00;;;;;;;-144.57;100.00;62443.72;5075890;28;20501;-61
2023/03/07 06:19:27;;;;;;;6.95;3.28;;;;;;;-144.57;100.00;62443.72;5093760;28;20044;-62
2023/03/07 06:21:53;;;;;;;4.53;3.13;;;;;;;-144.57;100.00;62443.72;5075722;28;20529;-63
2023/03/07 06:24:18;;;;;;;6.75;3.63;;;;;;;-144.57;100.00;62443.72;5092892;28;20493;-62
2023/03/07 06:26:45;;;;;;;6.85;3.42;;;;;;;-144.57;100.00;62443.72;5091904;28;20040;-62
2023/03/07 06:29:11;;;;;;;7.57;3.58;;;;;;;-144.57;100.00;62443.72;5075206;28;20142;-63
2023/03/07 06:31:37;;;;;;;6.15;3.63;;;;;;;-144.57;100.00;62443.72;5074110;28;20044;-62
2023/03/07 06:34:02;;;;;;;6.35;3.50;;;;;;;-144.57;100.00;62443.72;5092006;28;20503;-63
2023/03/07 06:36:28;;;;;;;4.55;3.03;;;;;;;-144.57;100.00;62443.72;5093052;28;20454;-63
2023/03/07 06:38:57;;;;;;;5.07;3.40;;;;;;;-144.57;100.00;62443.72;5076323;28;20413;-62
2023/03/07 06:41:24;;;;;;;5.93;3.75;;;;;;;-144.57;100.00;62443.72;5093026;28;20055;-61
2023/03/07 06:43:52;;;;;;;10.07;3.55;;;;;;;-144.57;100.00;62443.72;5092758;28;20073;-63
2023/03/07 06:46:22;;;;;;;6.90;3.78;;;;;;;-144.57;100.00;62443.72;5075440;28;20040;-63
2023/03/07 06:48:50;;;;;;;5.72;3.50;;;;;;;-144.57;100.00;62443.72;5092945;28;20130;-62
2023/03/07 06:51:17;;;;;;;5.80;3.30;;;;;;;-144.57;100.00;62443.72;5076701;28;20533;-62
2023/03/07 06:53:44;;;;;;;6.07;3.13;;;;;;;-144.57;100.00;62443.72;5075963;28;20124;-63
2023/03/07 06:56:10;;;;;;;7.97;3.70;;;;;;;-144.57;100.00;62443.72;5092735;28;20073;-63
2023/03/07 06:58:37;;;;;;;7.35;3.67;;;;;;;-144.57;100.00;62443.72;5092060;28;20127;-62
2023/03/07 07:01:03;;;;;;;6.57;4.03;;;;;;;-144.57;100.00;62443.72;5092121;28;20592;-62
2023/03/07 07:03:30;;;;;;;7.33;3.73;;;;;;;-144.57;100.00;62443.72;5092539;28;20400;-62
2023/03/07 07:05:56;;;;;;;7.45;3.78;;;;;;;-144.57;100.00;62443.72;5092168;28;20052;-62
2023/03/07 07:08:21;;;;;;;6.70;3.90;;;;;;;-144.57;100.00;62443.72;5093919;28;20040;-61
2023/03/07 07:10:47;;;;;;;5.78;3.65;;;;;;;-144.57;100.00;62443.72;5092001;28;20043;-62
2023/03/07 07:13:14;;;;;;;7.68;3.92;;;;;;;-144.57;100.00;62443.72;5092337;28;20139;-63
2023/03/07 07:15:39;;;;;;;5.97;4.00;;;;;;;-144.57;100.00;62443.72;5091928;28;20189;-62
2023/03/07 07:18:05;;;;;;;6.25;3.83;;;;;;;-144.57;100.00;62443.72;5091882;28;20101;-64
2023/03/07 07:20:32;;;;;;;7.43;3.40;;;;;;;-144.57;100.00;62443.72;5056853;28;20070;-63
2023/03/07 07:22:59;;;;;;;9.13;4.00;;;;;;;-144.57;100.00;62443.72;5090270;28;20048;-62
2023/03/07 07:25:24;;;;;;;8.57;3.97;;;;;;;-144.57;100.00;62443.72;5090989;28;20093;-63
2023/03/07 07:27:50;;;;;;;7.85;3.70;;;;;;;-144.57;100.00;62443.72;5092824;28;20077;-62
2023/03/07 07:30:16;;;;;;;7.80;4.07;;;;;;;-144.57;100.00;62443.72;5090811;28;20231;-64
2023/03/07 07:32:43;;;;;;;8.05;4.35;;;;;;;-144.57;100.00;62443.72;5093369;28;20031;-63
2023/03/07 07:35:10;;;;;;;8.77;4.15;;;;;;;-144.57;100.00;62443.72;5090874;28;20047;-64
2023/03/07 07:37:36;;;;;;;7.97;4.28;;;;;;;-144.57;100.00;62443.72;5092392;28;20061;-64
2023/03/07 07:40:04;;;;;;;5.35;3.72;;;;;;;-144.57;100.00;62443.72;5075121;28;20054;-62
2023/03/07 07:42:30;;;;;;;6.25;4.05;;;;;;;-144.57;100.00;62443.72;5090682;28;20048;-63
2023/03/07 07:45:05;;;;;;;5.55;4.10;;;;;;;-144.57;100.00;62443.72;5091607;28;20082;-61
2023/03/07 07:47:31;;;;;;;6.82;4.28;;;;;;;-144.57;100.00;62443.72;5091788;28;20046;-62
2023/03/07 07:49:57;;;;;;;6.88;3.58;;;;;;;-144.57;100.00;62443.72;5090653;28;20048;-61
2023/03/07 07:52:23;;;;;;;5.97;4.00;;;;;;;-144.57;100.00;62443.72;5074845;28;20047;-63
2023/03/07 07:54:50;;;;;;;7.90;5.00;;;;;;;-144.57;100.00;62443.72;5091448;28;20056;-62
2023/03/07 07:57:16;;;;;;;6.85;3.60;;;;;;;-144.57;100.00;62443.72;5074478;28;20040;-62
2023/03/07 07:59:42;;;;;;;7.68;4.10;;;;;;;-144.57;100.00;62443.72;5073753;28;20596;-64
2023/03/07 08:02:12;;;;;;;7.43;4.43;;;;;;;-144.57;100.00;62443.72;5091542;28;20122;-63
2023/03/07 08:04:38;;;;;;;8.95;4.53;;;;;;;-144.57;100.00;62443.72;5091567;28;20444;-62
2023/03/07 08:07:03;;;;;;;7.50;4.20;;;;;;;-144.57;100.00;62443.72;5091940;28;20044;-61
2023/03/07 08:09:29;;;;;;;11.15;4.45;;;;;;;-144.57;100.00;62443.72;5090138;28;20036;-63
2023/03/07 08:11:55;;;;;;;8.52;4.30;;;;;;;-144.57;100.00;62443.72;5072822;28;20051;-63
2023/03/07 08:14:20;;;;;;;8.77;4.45;;;;;;;-144.57;100.00;62443.72;5092924;28;20044;-63
2023/03/07 08:16:46;;;;;;;7.13;4.07;;;;;;;-144.57;100.00;62443.72;5092563;28;20047;-61
2023/03/07 08:19:11;;;;;;;8.15;3.90;;;;;;;-144.57;100.00;62443.72;5090134;28;20128;-63
2023/03/07 08:21:37;;;;;;;7.72;4.25;;;;;;;-144.57;100.00;62443.72;5090714;28;20067;-63
2023/03/07 08:24:03;;;;;;;6.13;3.53;;;;;;;-144.57;100.00;62443.72;5092077;28;20052;-62
2023/03/07 08:26:29;;;;;;;10.02;4.97;;;;;;;-144.57;100.00;62443.72;5092665;28;20047;-63
2023/03/07 08:28:54;;;;;;;7.32;4.13;;;;;;;-144.57;100.00;62443.72;5092196;28;20055;-62
2023/03/07 08:31:22;;;;;;;9.77;5.15;;;;;;;-144.57;100.00;62443.72;5092532;28;20111;-63
2023/03/07 08:33:48;;;;;;;7.53;4.35;;;;;;;-144.57;100.00;62443.72;5074222;28;20043;-63
2023/03/07 08:36:14;;;;;;;8.68;5.13;;;;;;;-144.57;100.00;62443.72;5092115;28;20048;-63
2023/03/07 08:38:40;;;;;;;10.05;5.13;;;;;;;-144.57;100.00;62443.72;5092255;28;20044;-62
2023/03/07 08:41:07;;;;;;;11.30;5.93;;;;;;;-144.57;100.00;62443.72;5092659;28;20075;-63
2023/03/07 08:43:35;;;;;;;8.40;5.05;;;;;;;-144.57;100.00;62443.72;5092250;28;20070;-63
2023/03/07 08:46:01;;;;;;;8.93;5.72;;;;;;;-144.57;100.00;62443.72;5092714;28;20378;-62
2023/03/07 08:48:27;;;;;;;10.90;5.00;;;;;;;-144.57;100.00;62443.72;5092535;28;20301;-62
2023/03/07 08:50:53;;;;;;;9.90;5.43;;;;;;;-144.57;100.00;62443.72;5092338;28;20051;-63
2023/03/07 08:53:19;;;;;;;9.38;5.68;;;;;;;-144.57;100.00;62443.72;5090741;28;20132;-64
2023/03/07 08:55:45;;;;;;;10.43;4.88;;;;;;;-144.57;100.00;62443.72;5091997;28;20497;-61
2023/03/07 08:58:11;;;;;;;10.85;5.05;;;;;;;-144.57;100.00;62443.72;5092487;28;20054;-62
2023/03/07 09:00:37;;;;;;;9.82;5.63;;;;;;;-144.57;100.00;62443.72;5091910;28;20098;-62
2023/03/07 09:03:04;;;;;;;11.35;5.60;;;;;;;-144.57;100.00;62443.72;5090965;28;20044;-62
2023/03/07 09:05:30;;;;;;;8.75;5.15;;;;;;;-144.57;100.00;62443.72;5090719;28;20124;-62
2023/03/07 09:07:55;;;;;;;10.07;6.07;;;;;;;-144.57;100.00;62443.72;5090500;28;20040;-63
2023/03/07 09:10:21;;;;;;;8.50;5.18;;;;;;;-144.57;100.00;62443.72;5091156;28;20051;-62
2023/03/07 09:12:50;;;;;;;10.73;5.50;;;;;;;-144.57;100.00;62443.72;5091504;28;20040;-62
2023/03/07 09:15:17;;;;;;;7.95;5.63;;;;;;;-144.57;100.00;62443.72;5090710;28;20048;-63
2023/03/07 09:17:42;;;;;;;11.90;5.68;;;;;;;-144.57;100.00;62443.72;5090646;28;20040;-62
2023/03/07 09:20:10;;;;;;;8.73;5.68;;;;;;;-144.57;100.00;62443.72;5088611;28;20494;-63
2023/03/07 09:22:36;;;;;;;11.43;5.85;;;;;;;-144.57;100.00;62443.72;5087415;28;20498;-61
2023/03/07 09:25:01;;;;;;;10.10;5.40;;;;;;;-144.57;100.00;62443.72;5091412;28;20051;-62
2023/03/07 09:27:28;;;;;;;9.25;5.43;;;;;;;-144.57;100.00;62443.72;5091696;28;20521;-63
2023/03/07 09:29:54;;;;;;;11.35;6.13;;;;;;;-144.57;100.00;62443.72;5091452;28;20063;-63
2023/03/07 09:32:20;;;;;;;11.52;5.32;;;;;;;-144.57;100.00;62443.72;5090203;28;20485;-62
2023/03/07 09:34:45;;;;;;;9.73;5.75;;;;;;;-144.57;100.00;62443.72;5089752;28;20052;-61
2023/03/07 09:37:11;;;;;;;9.18;5.13;;;;;;;-144.57;100.00;62443.72;5091647;28;20036;-60
2023/03/07 09:39:37;;;;;;;10.13;5.20;;;;;;;-144.57;100.00;62443.72;5089227;28;20086;-62
2023/03/07 09:42:15;;;;;;;8.98;5.22;;;;;;;-144.57;100.00;62443.72;5090141;28;20492;-63
2023/03/07 09:44:50;;;;;;;8.75;5.72;;;;;;;-144.57;100.00;62443.72;5090373;28;20048;-62
2023/03/07 09:48:10;;;;;;;9.73;5.50;;;;;;;-144.57;100.00;62443.72;5088848;28;20052;-63
2023/03/07 09:51:11;;;;;;;9.65;6.00;;;;;;;-144.57;100.00;62443.72;5056387;28;20052;-64
2023/03/07 09:53:41;;;;;;;8.07;5.35;;;;;;;-144.57;100.00;62443.72;5089711;28;20036;-63
2023/03/07 09:56:28;;;;;;;9.43;5.60;;;;;;;-144.57;100.00;62443.72;5088122;28;20482;-63
2023/03/07 09:59:21;;;;;;;11.05;5.95;;;;;;;-144.57;100.00;62443.72;5089198;28;20047;-63
2023/03/07 10:01:54;;;;;;;12.73;6.25;;;;;;;-144.57;100.00;62443.72;5090016;28;20040;-65
2023/03/07 10:04:25;;;;;;;12.18;5.90;;;;;;;-144.57;100.00;62443.72;5087474;28;20097;-63
2023/03/07 10:06:56;;;;;;;13.60;5.70;;;;;;;-144.57;100.00;62443.72;5086539;28;20114;-64
2023/03/07 10:09:22;;;;;;;10.07;5.18;;;;;;;-144.57;100.00;62443.72;5087122;28;20051;-64
2023/03/07 10:12:10;;;;;;;8.57;4.95;;;;;;;-144.57;100.00;62443.72;5088410;28;20044;-62
2023/03/07 10:14:53;;;;;;;7.88;4.60;;;;;;;-144.57;100.00;62443.72;5087991;28;20044;-62
2023/03/07 10:18:16;;;;;;;7.28;4.65;;;;;;;-144.57;100.00;62443.72;5076457;28;20047;-61
2023/03/07 10:21:07;;;;;;;11.25;5.05;;;;;;;-144.57;100.00;62443.72;5085468;28;20039;-63
2023/03/07 10:24:10;;;;;;;8.07;4.60;;;;;;;-144.57;100.00;62443.72;5087557;28;20040;-63
2023/03/07 10:26:39;;;;;;;7.50;4.45;;;;;;;-144.57;100.00;62443.72;5105278;28;20067;-62
2023/03/07 10:29:17;;;;;;;8.07;5.32;;;;;;;-144.57;100.00;62443.72;5090620;28;20502;-62
2023/03/07 10:32:24;;;;;;;8.57;4.63;;;;;;;-144.57;100.00;62443.72;5090843;28;20085;-62
2023/03/07 10:35:10;;;;;;;8.70;4.25;;;;;;;-144.57;100.00;62443.72;5089543;28;20198;-62
2023/03/07 10:38:06;;;;;;;11.82;4.80;;;;;;;-144.57;100.00;62443.72;5068988;28;20048;-63
2023/03/07 10:40:38;;;;;;;6.45;3.92;;;;;;;-144.57;100.00;62443.72;5090559;28;20056;-63
2023/03/07 10:43:04;;;;;;;7.10;4.60;;;;;;;-144.57;100.00;62443.72;5055949;28;20095;-63
2023/03/07 10:45:31;;;;;;;8.27;4.32;;;;;;;-144.57;100.00;62443.72;5071623;28;20428;-64
2023/03/07 10:48:05;;;;;;;7.85;4.78;;;;;;;-144.57;100.00;62443.72;5090601;28;20040;-65
2023/03/07 10:50:42;;;;;;;8.02;4.75;;;;;;;-144.57;100.00;62443.72;5090865;28;20355;-64
2023/03/07 10:53:24;;;;;;;7.63;4.72;;;;;;;-144.57;100.00;62443.72;5089284;28;20048;-64
2023/03/07 10:55:51;;;;;;;9.48;4.57;;;;;;;-144.57;100.00;62443.72;5090711;28;20059;-64
2023/03/07 10:58:27;;;;;;;8.25;5.03;;;;;;;-144.57;100.00;62443.72;5090443;28;20195;-63
2023/03/07 11:00:59;;;;;;;9.10;4.90;;;;;;;-144.57;100.00;62443.72;5092700;28;20031;-64
2023/03/07 11:03:33;;;;;;;8.30;4.25;;;;;;;-144.57;100.00;62443.72;5092638;28;20642;-63
2023/03/07 11:05:59;;;;;;;12.07;5.22;;;;;;;-144.57;100.00;62443.72;5093944;28;20064;-62
2023/03/07 11:08:35;;;;;;;9.75;5.55;;;;;;;-144.57;100.00;62443.72;5094022;28;20528;-64
2023/03/07 11:11:03;;;;;;;9.07;5.15;;;;;;;-144.57;100.00;62443.72;5092702;28;20416;-63
2023/03/07 11:13:30;;;;;;;8.60;4.93;;;;;;;-144.57;100.00;62443.72;5092959;28;20044;-62
2023/03/07 11:16:28;;;;;;;10.07;5.72;;;;;;;-144.57;100.00;62443.72;5093895;28;20040;-61